createdAt,value
2018-03-20T00:00:42.913Z,158436.23
2018-03-20T00:03:10.569Z,158432.31
2018-03-20T00:05:38.135Z,158440.11
2018-03-20T00:08:05.834Z,158443.98
2018-03-20T00:10:33.413Z,158452.44
2018-03-20T00:13:01.027Z,158447.91
2018-03-20T00:15:28.661Z,158443.98
2018-03-20T00:17:56.324Z,158438.81
2018-03-20T00:20:23.909Z,158445.28
2018-03-20T00:22:51.514Z,158453.08
2018-03-20T00:25:19.255Z,158474.48
2018-03-20T00:27:46.927Z,158495.89
2018-03-20T00:30:14.560Z,158490.67
2018-03-20T00:32:42.383Z,158477.06
2018-03-20T00:35:10.061Z,158496.53
2018-03-20T00:37:37.737Z,158480.30
2018-03-20T00:40:05.299Z,158500.41
2018-03-20T00:42:33.088Z,158490.03
2018-03-20T00:45:00.745Z,158508.86
2018-03-20T00:47:28.424Z,158521.81
2018-03-20T00:49:56.214Z,158497.83
2018-03-20T00:52:23.798Z,158493.91
2018-03-20T00:54:51.564Z,158467.97
2018-03-20T00:57:19.344Z,158449.84
2018-03-20T00:59:47.010Z,158439.47
2018-03-20T01:02:14.800Z,158442.05
2018-03-20T01:04:42.461Z,158467.97
2018-03-20T01:07:10.250Z,158448.55
2018-03-20T01:09:37.920Z,158462.16
2018-03-20T01:12:05.707Z,158475.12
2018-03-20T01:14:33.433Z,158499.12
2018-03-20T01:17:01.012Z,158495.25
2018-03-20T01:19:28.713Z,158515.31
2018-03-20T01:21:56.298Z,158482.92
2018-03-20T01:24:23.979Z,158509.50
2018-03-20T01:26:51.651Z,158485.50
2018-03-20T01:29:19.250Z,158479.66
2018-03-20T01:31:47.109Z,158483.56
2018-03-20T01:34:14.886Z,158483.56
2018-03-20T01:36:42.665Z,158491.31
2018-03-20T01:39:10.549Z,158478.34
2018-03-20T01:41:38.220Z,158499.77
2018-03-20T01:44:05.893Z,158504.28
2018-03-20T01:46:33.567Z,158533.50
2018-03-20T01:49:01.453Z,158532.86
2018-03-20T01:51:29.119Z,158539.95
2018-03-20T01:53:56.846Z,158550.98
2018-03-20T01:56:24.686Z,158550.34
2018-03-20T01:58:52.334Z,158563.31
2018-03-20T02:01:19.909Z,158569.81
2018-03-20T02:03:47.710Z,158579.56
2018-03-20T02:06:15.366Z,158576.92
2018-03-20T02:08:43.165Z,158584.72
2018-03-20T02:11:10.748Z,158598.98
2018-03-20T02:13:38.366Z,158607.44
2018-03-20T02:16:06.078Z,158623.63
2018-03-20T02:18:33.866Z,158621.05
2018-03-20T02:21:01.630Z,158648.28
2018-03-20T02:23:29.313Z,158656.08
2018-03-20T02:25:57.060Z,158687.89
2018-03-20T02:28:24.873Z,158721.59
2018-03-20T02:30:52.467Z,158727.45
2018-03-20T02:33:20.116Z,158728.75
2018-03-20T02:35:48.007Z,158739.14
2018-03-20T02:38:15.778Z,158746.25
2018-03-20T02:40:43.401Z,158752.77
2018-03-20T02:43:11.174Z,158748.89
2018-03-20T02:45:39.013Z,158756.00
2018-03-20T02:48:06.599Z,158752.77
2018-03-20T02:50:34.242Z,158752.13
2018-03-20T02:53:01.928Z,158768.97
2018-03-20T02:55:29.604Z,158759.23
2018-03-20T02:57:57.488Z,158771.56
2018-03-20T03:00:25.155Z,158787.17
2018-03-20T03:02:52.943Z,158817.66
2018-03-20T03:05:20.582Z,158812.47
2018-03-20T03:07:48.174Z,158824.16
2018-03-20T03:10:15.930Z,158818.30
2018-03-20T03:12:43.752Z,158832.63
2018-03-20T03:15:11.523Z,158915.03
2018-03-20T03:17:39.181Z,158870.27
2018-03-20T03:20:06.982Z,158875.44
2018-03-20T03:22:34.646Z,158953.38
2018-03-20T03:25:02.375Z,158972.17
2018-03-20T03:27:30.211Z,158978.69
2018-03-20T03:29:57.875Z,158984.52
2018-03-20T03:32:25.559Z,158977.34
2018-03-20T03:34:53.238Z,159029.34
2018-03-20T03:37:20.914Z,159016.34
2018-03-20T03:39:48.692Z,159022.83
2018-03-20T03:42:16.364Z,159021.53
2018-03-20T03:44:44.519Z,159007.25
2018-03-20T03:47:12.095Z,159005.95
2018-03-20T03:49:39.673Z,158970.23
2018-03-20T03:52:07.378Z,158964.37
2018-03-20T03:54:35.122Z,158974.77
2018-03-20T03:57:02.704Z,158931.94
2018-03-20T03:59:30.350Z,158932.58
2018-03-20T04:01:58.075Z,158914.37
2018-03-20T04:04:25.650Z,158922.19
2018-03-20T04:06:53.476Z,158919.59
2018-03-20T04:09:21.207Z,158940.34
2018-03-20T04:11:48.934Z,158913.08
2018-03-20T04:14:16.594Z,158911.78
2018-03-20T04:16:44.329Z,158900.09
2018-03-20T04:19:12.112Z,158863.09
2018-03-20T04:21:39.892Z,158861.81
2018-03-20T04:24:07.656Z,158894.94
2018-03-20T04:26:35.456Z,158910.50
2018-03-20T04:29:03.336Z,158903.34
2018-03-20T04:31:31.064Z,158899.45
2018-03-20T04:33:58.878Z,158909.84
2018-03-20T04:36:26.661Z,158910.50
2018-03-20T04:38:54.318Z,158944.92
2018-03-20T04:41:21.899Z,158967.00
2018-03-20T04:43:49.621Z,158981.92
2018-03-20T04:46:17.466Z,159013.08
2018-03-20T04:48:45.054Z,159036.45
2018-03-20T04:51:12.808Z,159051.44
2018-03-20T04:53:40.536Z,159052.08
2018-03-20T04:56:08.271Z,159076.77
2018-03-20T04:58:35.904Z,159087.16
2018-03-20T05:01:03.545Z,159115.08
2018-03-20T05:03:31.185Z,159128.06
2018-03-20T05:05:58.970Z,159137.19
2018-03-20T05:08:26.852Z,159150.17
2018-03-20T05:10:54.630Z,159161.88
2018-03-20T05:13:22.196Z,159154.70
2018-03-20T05:15:49.975Z,159170.28
2018-03-20T05:18:17.578Z,159206.66
2018-03-20T05:23:50.693Z,159225.53
2018-03-20T05:26:18.362Z,159237.23
2018-03-20T05:28:45.980Z,159235.94
2018-03-20T05:31:13.719Z,159219.70
2018-03-20T05:33:41.599Z,159202.78
2018-03-20T05:36:09.422Z,159185.91
2018-03-20T05:38:37.258Z,159167.69
2018-03-20T05:41:04.930Z,159148.88
2018-03-20T05:43:32.623Z,159128.72
2018-03-20T05:46:00.248Z,159141.70
2018-03-20T05:51:46.532Z,159129.36
2018-03-20T05:54:14.212Z,159101.44
2018-03-20T05:56:41.871Z,159107.91
2018-03-20T05:59:09.655Z,159103.39
2018-03-20T06:01:37.437Z,159085.17
2018-03-20T06:04:05.031Z,159094.92
2018-03-20T06:06:32.776Z,159100.80
2018-03-20T06:09:00.349Z,159092.98
2018-03-20T06:11:28.138Z,159089.75
2018-03-20T06:13:55.781Z,159093.63
2018-03-20T06:16:23.356Z,159088.45
2018-03-20T06:18:51.159Z,159098.16
2018-03-20T06:21:18.941Z,159117.02
2018-03-20T06:23:46.724Z,159128.06
2018-03-20T06:26:14.491Z,159111.84
2018-03-20T06:28:42.170Z,159143.66
2018-03-20T06:31:09.750Z,159145.59
2018-03-20T06:33:37.627Z,159159.92
2018-03-20T06:36:05.220Z,159172.27
2018-03-20T06:38:32.864Z,159185.91
2018-03-20T06:41:00.547Z,159184.61
2018-03-20T06:43:28.210Z,159202.78
2018-03-20T06:45:55.886Z,159211.89
2018-03-20T06:48:23.573Z,159213.83
2018-03-20T06:50:51.238Z,159235.94
2018-03-20T06:53:18.988Z,159243.06
2018-03-20T06:55:46.811Z,159247.64
2018-03-20T06:58:14.388Z,159247.64
2018-03-20T07:00:42.049Z,159259.98
2018-03-20T07:03:09.731Z,159261.28
2018-03-20T07:05:37.496Z,159274.28
2018-03-20T07:08:05.172Z,159284.03
2018-03-20T07:10:32.743Z,159286.63
2018-03-20T07:13:00.427Z,159306.14
2018-03-20T07:15:28.232Z,159300.91
2018-03-20T07:17:55.870Z,159312.62
2018-03-20T07:20:23.664Z,159328.91
2018-03-20T07:22:51.553Z,159320.44
2018-03-20T07:25:19.278Z,159337.31
2018-03-20T07:27:46.999Z,159350.31
2018-03-20T07:30:14.881Z,159364.66
2018-03-20T07:32:42.658Z,159394.55
2018-03-20T07:35:10.324Z,159391.31
2018-03-20T07:37:38.214Z,159397.78
2018-03-20T07:40:05.869Z,159401.06
2018-03-20T07:42:33.661Z,159429.02
2018-03-20T07:45:01.308Z,159440.72
2018-03-20T07:47:28.998Z,159464.78
2018-03-20T07:49:56.688Z,159475.19
2018-03-20T07:52:24.573Z,159488.84
2018-03-20T07:54:52.350Z,159493.37
2018-03-20T07:57:20.130Z,159526.56
2018-03-20T07:59:47.951Z,159540.86
2018-03-20T08:02:15.828Z,159563.64
2018-03-20T08:04:43.564Z,159594.87
2018-03-20T08:07:11.336Z,159573.41
2018-03-20T08:09:39.118Z,159552.58
2018-03-20T08:12:06.896Z,159589.66
2018-03-20T08:14:34.525Z,159595.53
2018-03-20T08:17:02.352Z,159581.19
2018-03-20T08:19:30.038Z,159596.83
2018-03-20T08:21:57.877Z,159616.97
2018-03-20T08:24:25.614Z,159623.50
2018-03-20T08:26:53.344Z,159626.73
2018-03-20T08:29:21.073Z,159624.78
2018-03-20T08:31:48.767Z,159651.45
2018-03-20T08:34:16.458Z,159639.75
2018-03-20T08:36:44.277Z,159655.39
2018-03-20T08:39:11.933Z,159657.34
2018-03-20T08:41:39.824Z,159721.09
2018-03-20T08:44:07.596Z,159731.52
2018-03-20T08:46:35.377Z,159725.64
2018-03-20T08:49:03.040Z,159739.94
2018-03-20T08:51:30.820Z,159734.75
2018-03-20T08:53:58.592Z,159745.83
2018-03-20T08:56:26.330Z,159767.97
2018-03-20T08:58:54.020Z,159799.19
2018-03-20T09:01:21.695Z,159833.69
2018-03-20T09:03:49.513Z,159866.27
2018-03-20T09:06:17.252Z,159890.34
2018-03-20T09:08:44.864Z,159887.75
2018-03-20T09:11:12.461Z,159861.72
2018-03-20T09:13:40.107Z,159834.98
2018-03-20T09:16:07.834Z,159840.88
2018-03-20T09:18:35.408Z,159887.11
2018-03-20T09:21:03.029Z,159863.02
2018-03-20T09:23:30.694Z,159855.19
2018-03-20T09:25:58.351Z,159873.44
2018-03-20T09:28:26.060Z,159926.81
2018-03-20T09:30:53.780Z,159938.53
2018-03-20T09:33:21.397Z,159900.13
2018-03-20T09:35:48.967Z,159920.28
2018-03-20T09:38:16.565Z,159956.75
2018-03-20T09:40:44.142Z,159945.03
2018-03-20T09:43:11.899Z,159955.45
2018-03-20T09:45:39.471Z,159980.84
2018-03-20T09:48:07.123Z,160047.31
2018-03-20T09:50:34.936Z,160042.72
2018-03-20T09:53:02.613Z,160032.98
2018-03-20T09:55:30.387Z,160075.95
2018-03-20T09:57:58.066Z,160046.02
2018-03-20T10:00:25.843Z,160056.44
2018-03-20T10:02:53.508Z,160022.56
2018-03-20T10:05:21.085Z,160098.77
2018-03-20T10:07:48.725Z,160108.55
2018-03-20T10:10:16.288Z,160124.17
2018-03-20T10:12:44.016Z,160119.62
2018-03-20T10:15:11.692Z,160167.19
2018-03-20T10:17:39.355Z,160201.09
2018-03-20T10:20:07.258Z,160174.98
2018-03-20T10:22:34.913Z,160261.00
2018-03-20T10:25:02.606Z,160221.27
2018-03-20T10:27:30.369Z,160267.55
2018-03-20T10:29:58.100Z,160234.30
2018-03-20T10:32:25.820Z,160246.03
2018-03-20T10:34:53.385Z,160269.50
2018-03-20T10:37:21.060Z,160289.06
2018-03-20T10:39:48.733Z,160279.28
2018-03-20T10:42:16.483Z,160255.81
2018-03-20T10:44:44.614Z,160240.83
2018-03-20T10:47:12.291Z,160310.59
2018-03-20T10:49:40.072Z,160347.75
2018-03-20T10:52:07.632Z,160342.50
2018-03-20T10:54:35.200Z,160326.87
2018-03-20T10:57:03.090Z,160283.83
2018-03-20T10:59:30.677Z,160357.48
2018-03-20T11:02:03.970Z,160396.69
2018-03-20T11:04:31.753Z,160336.02
2018-03-20T11:06:59.321Z,160348.39
2018-03-20T11:09:26.995Z,160417.53
2018-03-20T11:11:54.652Z,160404.48
2018-03-20T11:14:22.282Z,160362.08
2018-03-20T11:16:49.986Z,160401.89
2018-03-20T11:19:17.567Z,160474.92
2018-03-20T11:21:45.376Z,160473.63
2018-03-20T11:24:13.108Z,160465.14
2018-03-20T11:26:40.753Z,160380.36
2018-03-20T11:29:08.507Z,160383.66
2018-03-20T11:31:36.183Z,160384.95
2018-03-20T11:34:03.856Z,160452.75
2018-03-20T11:36:31.536Z,160454.69
2018-03-20T11:38:59.160Z,160385.61
2018-03-20T11:41:26.772Z,160360.13
2018-03-20T11:43:54.371Z,160398.00
2018-03-20T11:46:22.183Z,160476.87
2018-03-20T11:48:49.875Z,160425.37
2018-03-20T11:51:17.691Z,160471.03
2018-03-20T11:53:45.573Z,160510.16
2018-03-20T11:56:13.182Z,160456.69
2018-03-20T11:58:40.817Z,160480.17
2018-03-20T12:01:08.693Z,160506.91
2018-03-20T12:03:36.475Z,160508.86
2018-03-20T12:06:04.249Z,160504.95
2018-03-20T12:08:43.882Z,160464.48
2018-03-20T12:11:11.575Z,160552.53
2018-03-20T12:13:39.253Z,160497.77
2018-03-20T12:16:07.008Z,160514.05
2018-03-20T12:18:34.814Z,160481.47
2018-03-20T12:21:02.413Z,160506.91
2018-03-20T12:23:30.164Z,160482.13
2018-03-20T12:25:57.898Z,160431.91
2018-03-20T12:28:25.608Z,160446.91
2018-03-20T12:30:53.350Z,160478.17
2018-03-20T12:33:21.174Z,160553.88
2018-03-20T12:35:48.844Z,160555.17
2018-03-20T12:38:16.631Z,160548.63
2018-03-20T12:40:44.308Z,160510.16
2018-03-20T12:43:12.058Z,160498.41
2018-03-20T12:45:39.859Z,160525.14
2018-03-20T12:48:07.696Z,160501.66
2018-03-20T12:50:35.518Z,160509.50
2018-03-20T12:53:03.304Z,160552.53
2018-03-20T12:55:31.069Z,160511.45
2018-03-20T12:57:58.847Z,160514.05
2018-03-20T13:00:26.627Z,160574.72
2018-03-20T13:02:54.468Z,160579.97
2018-03-20T13:05:22.182Z,160575.36
2018-03-20T13:07:49.853Z,160553.88
2018-03-20T13:10:17.534Z,160542.12
2018-03-20T13:12:45.212Z,160556.47
2018-03-20T13:15:12.800Z,160529.73
2018-03-20T13:17:40.464Z,160512.75
2018-03-20T13:20:08.101Z,160540.84
2018-03-20T13:22:35.699Z,160596.91
2018-03-20T13:25:03.471Z,160552.53
2018-03-20T13:27:31.142Z,160547.33
2018-03-20T13:29:58.823Z,160578.02
2018-03-20T13:32:26.411Z,160547.97
2018-03-20T13:34:54.072Z,160562.31
2018-03-20T13:37:21.862Z,160604.09
2018-03-20T13:39:49.483Z,160604.75
2018-03-20T13:42:17.219Z,160593.66
2018-03-20T13:44:44.873Z,160597.56
2018-03-20T13:47:12.672Z,160606.70
2018-03-20T13:49:40.344Z,160579.31
2018-03-20T13:52:08.006Z,160570.17
2018-03-20T13:54:35.621Z,160584.52
2018-03-20T13:57:03.278Z,160610.59
2018-03-20T13:59:30.992Z,160589.06
2018-03-20T14:01:58.629Z,160547.97
2018-03-20T14:04:26.292Z,160594.30
2018-03-20T14:06:54.069Z,160583.86
2018-03-20T14:09:21.706Z,160549.94
2018-03-20T14:11:49.304Z,160538.19
2018-03-20T14:14:16.985Z,160549.28
2018-03-20T14:16:44.610Z,160534.94
2018-03-20T14:19:12.239Z,160510.16
2018-03-20T14:21:39.821Z,160558.42
2018-03-20T14:24:07.465Z,160581.91
2018-03-20T14:26:35.156Z,160566.91
2018-03-20T14:29:02.945Z,160589.06
2018-03-20T14:31:30.721Z,160595.61
2018-03-20T14:33:58.388Z,160607.34
2018-03-20T14:36:26.217Z,160598.84
2018-03-20T14:38:53.853Z,160566.91
2018-03-20T14:41:21.571Z,160551.88
2018-03-20T14:43:49.209Z,160555.83
2018-03-20T14:46:16.864Z,160566.27
2018-03-20T14:48:44.659Z,160580.61
2018-03-20T14:51:12.319Z,160555.17
2018-03-20T14:53:41.944Z,160563.63
2018-03-20T14:56:09.731Z,160537.53
2018-03-20T14:58:37.405Z,160554.53
2018-03-20T15:01:05.177Z,160531.69
2018-03-20T15:03:32.962Z,160538.19
2018-03-20T15:06:00.740Z,160521.25
2018-03-20T15:08:28.325Z,160529.73
2018-03-20T15:10:56.069Z,160545.38
2018-03-20T15:13:23.867Z,160527.09
2018-03-20T15:15:51.653Z,160516.00
2018-03-20T15:18:19.344Z,160542.78
2018-03-20T15:20:46.993Z,160534.28
2018-03-20T15:23:14.624Z,160542.78
2018-03-20T15:25:42.328Z,160538.19
2018-03-20T15:28:10.023Z,160539.48
2018-03-20T15:30:37.800Z,160564.27
2018-03-20T15:33:05.574Z,160481.47
2018-03-20T15:35:33.157Z,160489.27
2018-03-20T15:38:00.926Z,160502.31
2018-03-20T15:40:28.545Z,160477.53
2018-03-20T15:42:56.118Z,160446.91
2018-03-20T15:45:23.747Z,160446.25
2018-03-20T15:47:51.416Z,160433.22
2018-03-20T15:50:19.206Z,160424.72
2018-03-20T15:52:46.980Z,160436.47
2018-03-20T15:55:14.665Z,160392.75
2018-03-20T15:57:42.421Z,160405.14
2018-03-20T16:00:10.208Z,160382.31
2018-03-20T16:02:37.884Z,160379.06
2018-03-20T16:05:05.551Z,160388.20
2018-03-20T16:07:33.236Z,160387.56
2018-03-20T16:10:00.969Z,160395.41
2018-03-20T16:12:28.654Z,160404.48
2018-03-20T16:14:56.573Z,160343.81
2018-03-20T16:17:24.156Z,160347.09
2018-03-20T16:19:51.729Z,160349.05
2018-03-20T16:22:19.452Z,160326.87
2018-03-20T16:24:47.174Z,160307.30
2018-03-20T16:27:14.843Z,160310.59
2018-03-20T16:29:42.641Z,160315.14
2018-03-20T16:32:10.514Z,160294.91
2018-03-20T16:34:38.356Z,160299.50
2018-03-20T16:37:06.163Z,160272.09
2018-03-20T16:39:33.821Z,160339.91
2018-03-20T16:42:01.384Z,160382.31
2018-03-20T16:44:29.190Z,160433.86
2018-03-20T16:46:56.862Z,160418.83
2018-03-20T16:49:24.521Z,160402.55
2018-03-20T16:51:52.318Z,160399.94
2018-03-20T16:54:20.036Z,160422.13
2018-03-20T16:56:47.637Z,160367.97
2018-03-20T16:59:15.290Z,160364.69
2018-03-20T17:01:43.012Z,160318.38
2018-03-20T17:04:10.747Z,160345.75
2018-03-20T17:06:38.325Z,160317.73
2018-03-20T17:09:06.032Z,160312.53
2018-03-20T17:11:33.724Z,160266.89
2018-03-20T17:14:01.499Z,160231.69
2018-03-20T17:16:29.354Z,160208.23
2018-03-20T17:18:56.923Z,160194.55
2018-03-20T17:21:24.730Z,160194.55
2018-03-20T17:23:52.405Z,160161.31
2018-03-20T17:26:20.026Z,160151.53
2018-03-20T17:28:47.754Z,160169.14
2018-03-20T17:31:15.333Z,160087.69
2018-03-20T17:33:42.947Z,160036.22
2018-03-20T17:36:10.682Z,160085.09
2018-03-20T17:38:38.262Z,160052.50
2018-03-20T17:41:06.730Z,159990.62
2018-03-20T17:43:34.410Z,160004.94
2018-03-20T17:46:02.707Z,159959.39
2018-03-20T17:48:30.390Z,159876.69
2018-03-20T17:50:58.711Z,159879.28
2018-03-20T17:53:29.644Z,159862.38
2018-03-20T17:55:57.447Z,159823.27
2018-03-20T17:58:25.039Z,159790.75
2018-03-20T18:00:52.864Z,159797.23
2018-03-20T18:03:20.538Z,159826.56
2018-03-20T18:05:48.219Z,159821.33
2018-03-20T18:08:15.884Z,159799.19
2018-03-20T18:10:43.493Z,159708.08
2018-03-20T18:13:11.086Z,159644.33
2018-03-20T18:15:38.805Z,159587.70
2018-03-20T18:18:06.597Z,159523.33
2018-03-20T18:20:34.268Z,159520.69
2018-03-20T18:23:01.877Z,159505.09
2018-03-20T18:25:29.502Z,159515.50
2018-03-20T18:27:57.076Z,159488.19
2018-03-20T18:30:24.759Z,159487.55
2018-03-20T18:32:52.546Z,159475.84
2018-03-20T18:35:20.328Z,159458.91
2018-03-20T18:37:47.888Z,159435.48
2018-03-20T18:40:15.780Z,159439.42
2018-03-20T18:42:43.557Z,159435.48
2018-03-20T18:45:11.118Z,159436.14
2018-03-20T18:47:38.802Z,159429.66
2018-03-20T18:50:06.533Z,159417.31
2018-03-20T18:52:34.202Z,159371.13
2018-03-20T18:55:02.035Z,159385.44
2018-03-20T18:57:29.815Z,159382.19
2018-03-20T18:59:57.599Z,159375.03
2018-03-20T19:02:25.266Z,159337.97
2018-03-20T19:04:52.938Z,159344.50
2018-03-20T19:07:20.618Z,159343.19
2018-03-20T19:09:48.293Z,159325.61
2018-03-20T19:12:16.070Z,159315.86
2018-03-20T19:14:43.846Z,159288.56
2018-03-20T19:17:11.468Z,159278.81
2018-03-20T19:19:39.192Z,159291.16
2018-03-20T19:22:06.983Z,159276.86
2018-03-20T19:24:34.757Z,159244.41
2018-03-20T19:27:02.599Z,159240.47
2018-03-20T19:29:30.209Z,159219.70
2018-03-20T19:31:57.919Z,159168.34
2018-03-20T19:34:25.553Z,159183.97
2018-03-20T19:36:53.338Z,159177.44
2018-03-20T19:39:21.003Z,159176.80
2018-03-20T19:41:48.638Z,159150.17
2018-03-20T19:44:16.256Z,159148.88
2018-03-20T19:46:43.935Z,159152.75
2018-03-20T19:49:11.613Z,159140.41
2018-03-20T19:51:39.390Z,159131.31
2018-03-20T19:54:06.960Z,159120.25
2018-03-20T19:56:34.845Z,159115.72
2018-03-20T19:59:02.562Z,159078.06
2018-03-20T20:01:30.399Z,159055.31
2018-03-20T20:03:58.122Z,159062.48
2018-03-20T20:06:25.808Z,159051.44
2018-03-20T20:08:53.631Z,159054.67
2018-03-20T20:11:21.373Z,159031.92
2018-03-20T20:13:49.064Z,159012.42
2018-03-20T20:16:16.706Z,159004.66
2018-03-20T20:18:44.433Z,158951.37
2018-03-20T20:21:12.011Z,158978.05
2018-03-20T20:23:39.685Z,158959.19
2018-03-20T20:26:07.253Z,158971.53
2018-03-20T20:28:34.876Z,158951.37
2018-03-20T20:31:02.488Z,158939.05
2018-03-20T20:33:30.281Z,158898.81
2018-03-20T20:35:57.952Z,158901.39
2018-03-20T20:38:25.632Z,158874.78
2018-03-20T20:40:53.425Z,158840.38
2018-03-20T20:43:21.096Z,158811.83
2018-03-20T20:45:48.675Z,158807.91
2018-03-20T20:48:16.439Z,158777.42
2018-03-20T20:50:44.318Z,158756.00
2018-03-20T20:53:11.992Z,158749.53
2018-03-20T20:55:39.552Z,158739.78
2018-03-20T20:58:07.238Z,158741.08
2018-03-20T21:00:34.805Z,158719.00
2018-03-20T21:03:02.486Z,158730.69
2018-03-20T21:05:30.123Z,158728.75
2018-03-20T21:07:57.719Z,158719.66
2018-03-20T21:10:25.518Z,158711.20
2018-03-20T21:12:53.179Z,158719.66
2018-03-20T21:15:20.865Z,158730.69
2018-03-20T21:17:48.650Z,158724.88
2018-03-20T21:20:16.321Z,158719.00
2018-03-20T21:22:44.048Z,158713.19
2018-03-20T21:25:11.625Z,158727.45
2018-03-20T21:27:39.451Z,158741.08
2018-03-20T21:30:07.117Z,158743.02
2018-03-20T21:32:34.800Z,158708.62
2018-03-20T21:35:02.434Z,158707.97
2018-03-20T21:37:30.252Z,158695.00
2018-03-20T21:39:58.034Z,158691.13
2018-03-20T21:42:25.913Z,158698.23
2018-03-20T21:44:53.586Z,158689.83
2018-03-20T21:47:21.266Z,158709.27
2018-03-20T21:49:48.939Z,158689.19
2018-03-20T21:52:16.718Z,158648.92
2018-03-20T21:54:44.279Z,158624.28
2018-03-20T21:57:12.066Z,158613.89
2018-03-20T21:59:39.676Z,158616.53
2018-03-20T22:02:07.472Z,158595.75
2018-03-20T22:04:35.295Z,158613.25
2018-03-20T22:07:02.968Z,158624.28
2018-03-20T22:09:30.645Z,158612.59
2018-03-20T22:11:58.495Z,158583.44
2018-03-20T22:14:26.104Z,158524.41
2018-03-20T22:16:53.828Z,158575.63
2018-03-20T22:19:21.658Z,158568.53
2018-03-20T22:21:49.269Z,158576.28
2018-03-20T22:24:17.110Z,158567.23
2018-03-20T22:26:44.776Z,158608.72
2018-03-20T22:29:12.632Z,158566.53
2018-03-20T22:31:40.327Z,158469.91
2018-03-20T22:34:08.104Z,158424.56
2018-03-20T22:36:35.793Z,158408.33
2018-03-20T22:39:03.483Z,158324.70
2018-03-20T22:41:31.191Z,158322.77
2018-03-20T22:43:58.920Z,158346.75
2018-03-20T22:46:26.701Z,158291.69
2018-03-20T22:48:54.378Z,158217.83
2018-03-20T22:51:22.038Z,158180.20
2018-03-20T22:53:52.597Z,158245.67
2018-03-20T22:56:20.228Z,158296.20
2018-03-20T22:58:47.905Z,158207.45
2018-03-20T23:01:15.598Z,158143.94
2018-03-20T23:03:43.401Z,158087.63
2018-03-20T23:06:11.056Z,158066.23
2018-03-20T23:08:38.752Z,158043.56
2018-03-20T23:11:06.327Z,158022.19
2018-03-20T23:13:33.929Z,158022.19
2018-03-20T23:16:01.586Z,157998.87
2018-03-20T23:18:29.191Z,158000.86
2018-03-20T23:20:56.808Z,157997.58
2018-03-20T23:23:24.495Z,157994.36
2018-03-20T23:25:52.169Z,157986.56
2018-03-20T23:28:19.946Z,157963.95
2018-03-20T23:30:47.716Z,157938.02
2018-03-20T23:33:15.398Z,157989.20
2018-03-20T23:35:43.064Z,157982.06
2018-03-20T23:38:10.935Z,158002.78
2018-03-20T23:40:38.613Z,157974.91
2018-03-20T23:43:06.203Z,157985.92
2018-03-20T23:45:33.798Z,157970.41
2018-03-20T23:48:01.369Z,158009.23
2018-03-20T23:50:28.982Z,158078.53
2018-03-20T23:52:56.563Z,158178.28
2018-03-20T23:55:24.311Z,158270.30
2018-03-20T23:57:51.888Z,158329.92
